sensor_id;sensor_type;location;lat;lon;timestamp;P1;durP1;ratioP1;P2;durP2;ratioP2
49366;SDS011;35245;52.026;8.540;2023-05-07T00:00:54;20.08;;;16.10;;
49366;SDS011;35245;52.026;8.540;2023-05-07T00:03:21;19.55;;;16.05;;
49366;SDS011;35245;52.026;8.540;2023-05-07T00:05:48;17.92;;;15.15;;
49366;SDS011;35245;52.026;8.540;2023-05-07T00:08:14;22.48;;;16.33;;
49366;SDS011;35245;52.026;8.540;2023-05-07T00:10:43;21.20;;;16.70;;
49366;SDS011;35245;52.026;8.540;2023-05-07T00:13:11;23.42;;;17.27;;
49366;SDS011;35245;52.026;8.540;2023-05-07T00:15:38;20.48;;;16.90;;
49366;SDS011;35245;52.026;8.540;2023-05-07T00:18:05;19.17;;;16.20;;
49366;SDS011;35245;52.026;8.540;2023-05-07T00:20:32;20.80;;;17.23;;
49366;SDS011;35245;52.026;8.540;2023-05-07T00:22:58;21.40;;;17.05;;
49366;SDS011;35245;52.026;8.540;2023-05-07T00:25:25;22.70;;;16.90;;
49366;SDS011;35245;52.026;8.540;2023-05-07T00:27:54;21.45;;;17.33;;
49366;SDS011;35245;52.026;8.540;2023-05-07T00:30:21;19.77;;;16.45;;
49366;SDS011;35245;52.026;8.540;2023-05-07T00:32:47;19.95;;;17.00;;
49366;SDS011;35245;52.026;8.540;2023-05-07T00:35:15;18.67;;;16.05;;
49366;SDS011;35245;52.026;8.540;2023-05-07T00:37:42;19.95;;;16.35;;
49366;SDS011;35245;52.026;8.540;2023-05-07T00:40:09;23.95;;;17.23;;
49366;SDS011;35245;52.026;8.540;2023-05-07T00:42:36;22.42;;;18.20;;
49366;SDS011;35245;52.026;8.540;2023-05-07T00:45:05;19.92;;;17.20;;
49366;SDS011;35245;52.026;8.540;2023-05-07T00:47:34;23.77;;;17.10;;
49366;SDS011;35245;52.026;8.540;2023-05-07T00:50:01;20.42;;;17.00;;
49366;SDS011;35245;52.026;8.540;2023-05-07T00:52:28;23.85;;;16.85;;
49366;SDS011;35245;52.026;8.540;2023-05-07T00:54:56;24.30;;;18.33;;
49366;SDS011;35245;52.026;8.540;2023-05-07T00:57:23;22.38;;;16.05;;
49366;SDS011;35245;52.026;8.540;2023-05-07T00:59:51;21.67;;;15.73;;
49366;SDS011;35245;52.026;8.540;2023-05-07T01:02:19;18.98;;;15.82;;
49366;SDS011;35245;52.026;8.540;2023-05-07T01:04:46;22.98;;;16.15;;
49366;SDS011;35245;52.026;8.540;2023-05-07T01:07:13;19.85;;;16.27;;
49366;SDS011;35245;52.026;8.540;2023-05-07T01:09:40;21.67;;;15.98;;
49366;SDS011;35245;52.026;8.540;2023-05-07T01:12:07;21.63;;;17.42;;
49366;SDS011;35245;52.026;8.540;2023-05-07T01:14:35;23.63;;;17.15;;
49366;SDS011;35245;52.026;8.540;2023-05-07T01:17:01;22.35;;;18.05;;
49366;SDS011;35245;52.026;8.540;2023-05-07T01:19:30;22.48;;;18.73;;
49366;SDS011;35245;52.026;8.540;2023-05-07T01:21:59;24.10;;;17.00;;
49366;SDS011;35245;52.026;8.540;2023-05-07T01:24:30;22.80;;;17.33;;
49366;SDS011;35245;52.026;8.540;2023-05-07T01:26:58;22.10;;;17.63;;
49366;SDS011;35245;52.026;8.540;2023-05-07T01:29:26;20.67;;;17.60;;
49366;SDS011;35245;52.026;8.540;2023-05-07T01:31:53;23.85;;;17.90;;
49366;SDS011;35245;52.026;8.540;2023-05-07T01:34:21;24.73;;;17.63;;
49366;SDS011;35245;52.026;8.540;2023-05-07T01:36:47;24.50;;;17.50;;
49366;SDS011;35245;52.026;8.540;2023-05-07T01:39:15;23.70;;;18.40;;
49366;SDS011;35245;52.026;8.540;2023-05-07T01:41:43;22.95;;;18.33;;
49366;SDS011;35245;52.026;8.540;2023-05-07T01:44:11;22.35;;;17.85;;
49366;SDS011;35245;52.026;8.540;2023-05-07T01:46:39;24.35;;;17.90;;
49366;SDS011;35245;52.026;8.540;2023-05-07T01:49:06;23.60;;;18.17;;
49366;SDS011;35245;52.026;8.540;2023-05-07T01:51:33;23.92;;;19.25;;
49366;SDS011;35245;52.026;8.540;2023-05-07T01:54:00;27.83;;;19.30;;
49366;SDS011;35245;52.026;8.540;2023-05-07T01:56:27;27.42;;;19.33;;
49366;SDS011;35245;52.026;8.540;2023-05-07T01:58:56;22.17;;;17.75;;
49366;SDS011;35245;52.026;8.540;2023-05-07T02:01:23;23.92;;;18.33;;
49366;SDS011;35245;52.026;8.540;2023-05-07T02:03:49;25.75;;;19.10;;
49366;SDS011;35245;52.026;8.540;2023-05-07T02:06:16;22.88;;;18.67;;
49366;SDS011;35245;52.026;8.540;2023-05-07T02:08:44;22.83;;;18.20;;
49366;SDS011;35245;52.026;8.540;2023-05-07T02:11:11;25.80;;;18.73;;
49366;SDS011;35245;52.026;8.540;2023-05-07T02:13:38;28.13;;;19.63;;
49366;SDS011;35245;52.026;8.540;2023-05-07T02:16:06;25.38;;;18.75;;
49366;SDS011;35245;52.026;8.540;2023-05-07T02:18:33;23.85;;;19.63;;
49366;SDS011;35245;52.026;8.540;2023-05-07T02:21:00;25.27;;;18.67;;
49366;SDS011;35245;52.026;8.540;2023-05-07T02:23:27;24.50;;;18.50;;
49366;SDS011;35245;52.026;8.540;2023-05-07T02:25:54;24.20;;;18.70;;
49366;SDS011;35245;52.026;8.540;2023-05-07T02:28:21;27.42;;;20.40;;
49366;SDS011;35245;52.026;8.540;2023-05-07T02:30:48;24.30;;;19.75;;
49366;SDS011;35245;52.026;8.540;2023-05-07T02:33:17;25.92;;;19.67;;
49366;SDS011;35245;52.026;8.540;2023-05-07T02:35:44;25.92;;;19.17;;
49366;SDS011;35245;52.026;8.540;2023-05-07T02:38:10;23.02;;;19.80;;
49366;SDS011;35245;52.026;8.540;2023-05-07T02:40:37;23.35;;;19.77;;
49366;SDS011;35245;52.026;8.540;2023-05-07T02:43:05;24.58;;;18.75;;
49366;SDS011;35245;52.026;8.540;2023-05-07T02:45:31;26.50;;;20.15;;
49366;SDS011;35245;52.026;8.540;2023-05-07T02:47:58;24.30;;;18.80;;
49366;SDS011;35245;52.026;8.540;2023-05-07T02:50:27;24.48;;;20.30;;
49366;SDS011;35245;52.026;8.540;2023-05-07T02:52:54;23.65;;;19.45;;
49366;SDS011;35245;52.026;8.540;2023-05-07T02:55:20;26.13;;;20.45;;
49366;SDS011;35245;52.026;8.540;2023-05-07T02:57:47;24.40;;;19.08;;
49366;SDS011;35245;52.026;8.540;2023-05-07T03:00:15;25.15;;;19.83;;
49366;SDS011;35245;52.026;8.540;2023-05-07T03:02:44;23.05;;;19.55;;
49366;SDS011;35245;52.026;8.540;2023-05-07T03:05:11;25.98;;;20.58;;
49366;SDS011;35245;52.026;8.540;2023-05-07T03:07:40;28.70;;;22.02;;
49366;SDS011;35245;52.026;8.540;2023-05-07T03:10:10;26.80;;;20.15;;
49366;SDS011;35245;52.026;8.540;2023-05-07T03:12:37;25.17;;;18.98;;
49366;SDS011;35245;52.026;8.540;2023-05-07T03:15:04;24.98;;;19.60;;
49366;SDS011;35245;52.026;8.540;2023-05-07T03:17:32;24.63;;;19.90;;
49366;SDS011;35245;52.026;8.540;2023-05-07T03:19:58;26.98;;;20.10;;
49366;SDS011;35245;52.026;8.540;2023-05-07T03:22:25;25.27;;;19.63;;
49366;SDS011;35245;52.026;8.540;2023-05-07T03:24:53;25.98;;;19.63;;
49366;SDS011;35245;52.026;8.540;2023-05-07T03:27:20;27.73;;;20.30;;
49366;SDS011;35245;52.026;8.540;2023-05-07T03:29:47;24.63;;;20.13;;
49366;SDS011;35245;52.026;8.540;2023-05-07T03:32:15;26.50;;;20.23;;
49366;SDS011;35245;52.026;8.540;2023-05-07T03:34:41;23.45;;;18.27;;
49366;SDS011;35245;52.026;8.540;2023-05-07T03:37:08;26.88;;;20.00;;
49366;SDS011;35245;52.026;8.540;2023-05-07T03:39:35;25.70;;;21.05;;
49366;SDS011;35245;52.026;8.540;2023-05-07T03:42:03;26.15;;;20.15;;
49366;SDS011;35245;52.026;8.540;2023-05-07T03:44:30;25.83;;;20.27;;
49366;SDS011;35245;52.026;8.540;2023-05-07T03:46:57;24.73;;;20.70;;
49366;SDS011;35245;52.026;8.540;2023-05-07T03:49:24;25.33;;;19.27;;
49366;SDS011;35245;52.026;8.540;2023-05-07T03:51:51;25.92;;;20.58;;
49366;SDS011;35245;52.026;8.540;2023-05-07T03:54:18;25.75;;;20.90;;
49366;SDS011;35245;52.026;8.540;2023-05-07T03:56:45;27.83;;;21.20;;
49366;SDS011;35245;52.026;8.540;2023-05-07T03:59:13;24.98;;;19.50;;
49366;SDS011;35245;52.026;8.540;2023-05-07T04:01:40;28.60;;;21.85;;
49366;SDS011;35245;52.026;8.540;2023-05-07T04:04:07;24.95;;;19.73;;
49366;SDS011;35245;52.026;8.540;2023-05-07T04:06:34;24.20;;;19.50;;
49366;SDS011;35245;52.026;8.540;2023-05-07T04:09:01;28.38;;;21.55;;
49366;SDS011;35245;52.026;8.540;2023-05-07T04:11:27;24.27;;;20.52;;
49366;SDS011;35245;52.026;8.540;2023-05-07T04:13:54;24.98;;;19.88;;
49366;SDS011;35245;52.026;8.540;2023-05-07T04:16:23;26.58;;;20.17;;
49366;SDS011;35245;52.026;8.540;2023-05-07T04:18:49;23.73;;;20.50;;
49366;SDS011;35245;52.026;8.540;2023-05-07T04:21:16;24.48;;;19.70;;
49366;SDS011;35245;52.026;8.540;2023-05-07T04:23:44;25.98;;;20.02;;
49366;SDS011;35245;52.026;8.540;2023-05-07T04:26:12;26.33;;;20.20;;
49366;SDS011;35245;52.026;8.540;2023-05-07T04:28:39;24.65;;;19.95;;
49366;SDS011;35245;52.026;8.540;2023-05-07T04:31:06;26.42;;;19.83;;
49366;SDS011;35245;52.026;8.540;2023-05-07T04:33:34;29.10;;;21.23;;
49366;SDS011;35245;52.026;8.540;2023-05-07T04:36:02;29.38;;;22.27;;
49366;SDS011;35245;52.026;8.540;2023-05-07T04:38:29;28.45;;;21.88;;
49366;SDS011;35245;52.026;8.540;2023-05-07T04:40:56;26.73;;;21.08;;
49366;SDS011;35245;52.026;8.540;2023-05-07T04:43:23;28.45;;;20.15;;
49366;SDS011;35245;52.026;8.540;2023-05-07T04:45:50;25.10;;;19.85;;
49366;SDS011;35245;52.026;8.540;2023-05-07T04:48:17;24.48;;;19.98;;
49366;SDS011;35245;52.026;8.540;2023-05-07T04:50:48;25.77;;;20.92;;
49366;SDS011;35245;52.026;8.540;2023-05-07T04:53:15;26.33;;;20.40;;
49366;SDS011;35245;52.026;8.540;2023-05-07T04:55:43;27.48;;;21.35;;
49366;SDS011;35245;52.026;8.540;2023-05-07T04:58:10;29.17;;;21.27;;
49366;SDS011;35245;52.026;8.540;2023-05-07T05:00:37;28.00;;;21.45;;
49366;SDS011;35245;52.026;8.540;2023-05-07T05:03:04;26.15;;;21.23;;
49366;SDS011;35245;52.026;8.540;2023-05-07T05:05:32;28.02;;;21.80;;
49366;SDS011;35245;52.026;8.540;2023-05-07T05:08:00;28.52;;;21.02;;
49366;SDS011;35245;52.026;8.540;2023-05-07T05:10:27;26.35;;;20.13;;
49366;SDS011;35245;52.026;8.540;2023-05-07T05:12:54;27.15;;;22.02;;
49366;SDS011;35245;52.026;8.540;2023-05-07T05:15:21;26.80;;;21.15;;
49366;SDS011;35245;52.026;8.540;2023-05-07T05:17:48;29.08;;;21.60;;
49366;SDS011;35245;52.026;8.540;2023-05-07T05:20:15;30.90;;;21.33;;
49366;SDS011;35245;52.026;8.540;2023-05-07T05:22:42;26.33;;;20.58;;
49366;SDS011;35245;52.026;8.540;2023-05-07T05:25:11;26.58;;;21.73;;
49366;SDS011;35245;52.026;8.540;2023-05-07T05:27:38;26.80;;;20.63;;
49366;SDS011;35245;52.026;8.540;2023-05-07T05:30:05;25.83;;;20.65;;
49366;SDS011;35245;52.026;8.540;2023-05-07T05:32:32;26.55;;;20.88;;
49366;SDS011;35245;52.026;8.540;2023-05-07T05:34:59;29.33;;;22.27;;
49366;SDS011;35245;52.026;8.540;2023-05-07T05:37:26;26.23;;;21.40;;
49366;SDS011;35245;52.026;8.540;2023-05-07T05:39:55;29.95;;;21.63;;
49366;SDS011;35245;52.026;8.540;2023-05-07T05:42:23;24.73;;;19.73;;
49366;SDS011;35245;52.026;8.540;2023-05-07T05:44:50;25.85;;;20.70;;
49366;SDS011;35245;52.026;8.540;2023-05-07T05:47:17;25.80;;;20.73;;
49366;SDS011;35245;52.026;8.540;2023-05-07T05:49:44;25.45;;;19.98;;
49366;SDS011;35245;52.026;8.540;2023-05-07T05:52:11;27.15;;;20.60;;
49366;SDS011;35245;52.026;8.540;2023-05-07T05:54:39;28.48;;;20.75;;
49366;SDS011;35245;52.026;8.540;2023-05-07T05:57:06;24.77;;;20.15;;
49366;SDS011;35245;52.026;8.540;2023-05-07T05:59:34;27.42;;;18.95;;
49366;SDS011;35245;52.026;8.540;2023-05-07T06:02:01;23.63;;;18.55;;
49366;SDS011;35245;52.026;8.540;2023-05-07T06:04:28;23.33;;;19.15;;
49366;SDS011;35245;52.026;8.540;2023-05-07T06:06:55;26.13;;;19.25;;
49366;SDS011;35245;52.026;8.540;2023-05-07T06:09:22;21.52;;;17.92;;
49366;SDS011;35245;52.026;8.540;2023-05-07T06:11:49;24.58;;;19.17;;
49366;SDS011;35245;52.026;8.540;2023-05-07T06:14:16;21.80;;;17.73;;
49366;SDS011;35245;52.026;8.540;2023-05-07T06:16:45;22.83;;;17.70;;
49366;SDS011;35245;52.026;8.540;2023-05-07T06:19:12;25.30;;;17.90;;
49366;SDS011;35245;52.026;8.540;2023-05-07T06:21:39;22.92;;;18.35;;
49366;SDS011;35245;52.026;8.540;2023-05-07T06:24:06;20.77;;;16.83;;
49366;SDS011;35245;52.026;8.540;2023-05-07T06:26:33;21.50;;;17.23;;
49366;SDS011;35245;52.026;8.540;2023-05-07T06:29:00;22.38;;;17.30;;
49366;SDS011;35245;52.026;8.540;2023-05-07T06:31:29;19.33;;;15.68;;
49366;SDS011;35245;52.026;8.540;2023-05-07T06:33:58;20.13;;;16.00;;
49366;SDS011;35245;52.026;8.540;2023-05-07T06:36:25;21.65;;;16.13;;
49366;SDS011;35245;52.026;8.540;2023-05-07T06:38:52;21.98;;;16.35;;
49366;SDS011;35245;52.026;8.540;2023-05-07T06:41:19;21.02;;;15.93;;
49366;SDS011;35245;52.026;8.540;2023-05-07T06:43:46;19.30;;;15.55;;
49366;SDS011;35245;52.026;8.540;2023-05-07T06:46:13;22.08;;;16.92;;
49366;SDS011;35245;52.026;8.540;2023-05-07T06:48:41;20.10;;;15.68;;
49366;SDS011;35245;52.026;8.540;2023-05-07T06:51:09;20.80;;;15.90;;
49366;SDS011;35245;52.026;8.540;2023-05-07T06:53:36;18.75;;;14.48;;
49366;SDS011;35245;52.026;8.540;2023-05-07T06:56:03;19.33;;;14.98;;
49366;SDS011;35245;52.026;8.540;2023-05-07T06:58:30;21.33;;;15.32;;
49366;SDS011;35245;52.026;8.540;2023-05-07T07:00:57;19.52;;;15.30;;
49366;SDS011;35245;52.026;8.540;2023-05-07T07:03:24;20.98;;;14.85;;
49366;SDS011;35245;52.026;8.540;2023-05-07T07:05:51;17.88;;;13.80;;
49366;SDS011;35245;52.026;8.540;2023-05-07T07:08:19;17.95;;;14.20;;
49366;SDS011;35245;52.026;8.540;2023-05-07T07:10:47;18.50;;;14.50;;
49366;SDS011;35245;52.026;8.540;2023-05-07T07:13:14;18.33;;;14.10;;
49366;SDS011;35245;52.026;8.540;2023-05-07T07:15:41;21.48;;;14.52;;
49366;SDS011;35245;52.026;8.540;2023-05-07T07:18:08;18.98;;;14.73;;
49366;SDS011;35245;52.026;8.540;2023-05-07T07:20:35;18.05;;;13.73;;
49366;SDS011;35245;52.026;8.540;2023-05-07T07:23:01;21.25;;;14.80;;
49366;SDS011;35245;52.026;8.540;2023-05-07T07:25:30;21.20;;;14.32;;
49366;SDS011;35245;52.026;8.540;2023-05-07T07:27:57;19.10;;;14.00;;
49366;SDS011;35245;52.026;8.540;2023-05-07T07:30:23;17.25;;;13.40;;
49366;SDS011;35245;52.026;8.540;2023-05-07T07:32:51;17.75;;;13.60;;
49366;SDS011;35245;52.026;8.540;2023-05-07T07:35:18;17.73;;;12.75;;
49366;SDS011;35245;52.026;8.540;2023-05-07T07:37:45;14.77;;;11.95;;
49366;SDS011;35245;52.026;8.540;2023-05-07T07:40:12;17.13;;;12.48;;
49366;SDS011;35245;52.026;8.540;2023-05-07T07:42:41;16.67;;;12.60;;
49366;SDS011;35245;52.026;8.540;2023-05-07T07:45:08;17.00;;;12.57;;
49366;SDS011;35245;52.026;8.540;2023-05-07T07:47:35;16.92;;;12.63;;
49366;SDS011;35245;52.026;8.540;2023-05-07T07:50:02;16.05;;;12.07;;
49366;SDS011;35245;52.026;8.540;2023-05-07T07:52:29;15.35;;;12.43;;
49366;SDS011;35245;52.026;8.540;2023-05-07T07:54:56;15.50;;;12.68;;
49366;SDS011;35245;52.026;8.540;2023-05-07T07:57:23;17.92;;;11.68;;
49366;SDS011;35245;52.026;8.540;2023-05-07T07:59:52;14.40;;;11.48;;
49366;SDS011;35245;52.026;8.540;2023-05-07T08:02:18;14.95;;;11.63;;
49366;SDS011;35245;52.026;8.540;2023-05-07T08:04:45;14.25;;;11.55;;
49366;SDS011;35245;52.026;8.540;2023-05-07T08:07:12;14.77;;;10.88;;
49366;SDS011;35245;52.026;8.540;2023-05-07T08:09:40;12.88;;;10.77;;
49366;SDS011;35245;52.026;8.540;2023-05-07T08:12:07;13.52;;;10.75;;
49366;SDS011;35245;52.026;8.540;2023-05-07T08:14:34;14.48;;;11.48;;
49366;SDS011;35245;52.026;8.540;2023-05-07T08:17:02;13.93;;;10.82;;
49366;SDS011;35245;52.026;8.540;2023-05-07T08:19:29;13.68;;;10.43;;
49366;SDS011;35245;52.026;8.540;2023-05-07T08:21:56;15.07;;;10.13;;
49366;SDS011;35245;52.026;8.540;2023-05-07T08:24:23;14.27;;;10.60;;
49366;SDS011;35245;52.026;8.540;2023-05-07T08:26:50;12.82;;;9.68;;
49366;SDS011;35245;52.026;8.540;2023-05-07T08:29:17;12.30;;;10.13;;
49366;SDS011;35245;52.026;8.540;2023-05-07T08:31:44;11.98;;;9.73;;
49366;SDS011;35245;52.026;8.540;2023-05-07T08:34:13;11.70;;;9.38;;
49366;SDS011;35245;52.026;8.540;2023-05-07T08:36:40;12.10;;;9.35;;
49366;SDS011;35245;52.026;8.540;2023-05-07T08:39:07;12.80;;;9.45;;
49366;SDS011;35245;52.026;8.540;2023-05-07T08:41:34;13.00;;;9.00;;
49366;SDS011;35245;52.026;8.540;2023-05-07T08:44:02;11.98;;;9.07;;
49366;SDS011;35245;52.026;8.540;2023-05-07T08:46:30;10.95;;;8.63;;
49366;SDS011;35245;52.026;8.540;2023-05-07T08:48:58;14.43;;;9.35;;
49366;SDS011;35245;52.026;8.540;2023-05-07T08:51:26;10.68;;;8.65;;
49366;SDS011;35245;52.026;8.540;2023-05-07T08:53:53;11.02;;;9.18;;
49366;SDS011;35245;52.026;8.540;2023-05-07T08:56:20;11.77;;;9.25;;
49366;SDS011;35245;52.026;8.540;2023-05-07T08:58:47;10.82;;;8.77;;
49366;SDS011;35245;52.026;8.540;2023-05-07T09:01:14;12.23;;;9.55;;
49366;SDS011;35245;52.026;8.540;2023-05-07T09:03:43;10.82;;;8.68;;
49366;SDS011;35245;52.026;8.540;2023-05-07T09:06:11;11.50;;;9.13;;
49366;SDS011;35245;52.026;8.540;2023-05-07T09:08:39;11.07;;;8.80;;
49366;SDS011;35245;52.026;8.540;2023-05-07T09:11:06;10.23;;;8.25;;
49366;SDS011;35245;52.026;8.540;2023-05-07T09:13:33;10.32;;;8.70;;
49366;SDS011;35245;52.026;8.540;2023-05-07T09:16:09;10.60;;;8.38;;
49366;SDS011;35245;52.026;8.540;2023-05-07T09:18:40;10.05;;;7.72;;
49366;SDS011;35245;52.026;8.540;2023-05-07T09:21:09;13.00;;;8.43;;
49366;SDS011;35245;52.026;8.540;2023-05-07T09:23:36;10.75;;;8.57;;
49366;SDS011;35245;52.026;8.540;2023-05-07T09:26:06;10.95;;;8.73;;
49366;SDS011;35245;52.026;8.540;2023-05-07T09:28:37;10.73;;;8.00;;
49366;SDS011;35245;52.026;8.540;2023-05-07T09:31:06;12.25;;;8.98;;
49366;SDS011;35245;52.026;8.540;2023-05-07T09:33:33;12.82;;;9.05;;
49366;SDS011;35245;52.026;8.540;2023-05-07T09:36:02;13.93;;;9.45;;
49366;SDS011;35245;52.026;8.540;2023-05-07T09:38:30;12.07;;;8.38;;
49366;SDS011;35245;52.026;8.540;2023-05-07T09:41:04;9.38;;;7.28;;
49366;SDS011;35245;52.026;8.540;2023-05-07T09:43:32;10.65;;;8.70;;
49366;SDS011;35245;52.026;8.540;2023-05-07T09:46:02;11.88;;;8.68;;
49366;SDS011;35245;52.026;8.540;2023-05-07T09:48:30;10.60;;;8.63;;
49366;SDS011;35245;52.026;8.540;2023-05-07T09:50:57;11.32;;;8.63;;
49366;SDS011;35245;52.026;8.540;2023-05-07T09:53:29;9.98;;;7.95;;
49366;SDS011;35245;52.026;8.540;2023-05-07T09:55:56;9.25;;;7.55;;
49366;SDS011;35245;52.026;8.540;2023-05-07T09:58:25;11.32;;;8.25;;
49366;SDS011;35245;52.026;8.540;2023-05-07T10:00:52;11.77;;;8.93;;
49366;SDS011;35245;52.026;8.540;2023-05-07T10:03:20;11.73;;;8.35;;
49366;SDS011;35245;52.026;8.540;2023-05-07T10:05:48;11.27;;;8.05;;
49366;SDS011;35245;52.026;8.540;2023-05-07T10:08:15;13.13;;;8.77;;
49366;SDS011;35245;52.026;8.540;2023-05-07T10:10:45;10.95;;;8.23;;
49366;SDS011;35245;52.026;8.540;2023-05-07T10:13:12;13.00;;;8.65;;
49366;SDS011;35245;52.026;8.540;2023-05-07T10:15:40;12.20;;;8.10;;
49366;SDS011;35245;52.026;8.540;2023-05-07T10:18:08;10.90;;;8.48;;
49366;SDS011;35245;52.026;8.540;2023-05-07T10:20:35;11.50;;;8.60;;
49366;SDS011;35245;52.026;8.540;2023-05-07T10:23:04;12.45;;;8.27;;
49366;SDS011;35245;52.026;8.540;2023-05-07T10:25:32;10.68;;;7.53;;
49366;SDS011;35245;52.026;8.540;2023-05-07T10:27:59;10.73;;;8.40;;
49366;SDS011;35245;52.026;8.540;2023-05-07T10:30:32;10.27;;;8.07;;
49366;SDS011;35245;52.026;8.540;2023-05-07T10:33:08;9.63;;;7.45;;
49366;SDS011;35245;52.026;8.540;2023-05-07T10:35:37;9.85;;;7.78;;
49366;SDS011;35245;52.026;8.540;2023-05-07T10:38:05;12.32;;;8.30;;
49366;SDS011;35245;52.026;8.540;2023-05-07T10:40:33;11.40;;;7.75;;
49366;SDS011;35245;52.026;8.540;2023-05-07T10:43:00;9.70;;;7.03;;
49366;SDS011;35245;52.026;8.540;2023-05-07T10:45:30;9.35;;;7.32;;
49366;SDS011;35245;52.026;8.540;2023-05-07T10:50:43;10.25;;;7.28;;
49366;SDS011;35245;52.026;8.540;2023-05-07T10:53:21;9.57;;;7.45;;
49366;SDS011;35245;52.026;8.540;2023-05-07T10:58:54;8.68;;;6.82;;
49366;SDS011;35245;52.026;8.540;2023-05-07T11:04:18;8.82;;;6.00;;
49366;SDS011;35245;52.026;8.540;2023-05-07T11:12:53;9.10;;;6.20;;
49366;SDS011;35245;52.026;8.540;2023-05-07T11:15:34;7.43;;;5.53;;
49366;SDS011;35245;52.026;8.540;2023-05-07T11:18:05;9.52;;;5.82;;
49366;SDS011;35245;52.026;8.540;2023-05-07T11:20:46;9.52;;;6.07;;
49366;SDS011;35245;52.026;8.540;2023-05-07T11:26:41;8.45;;;5.63;;
49366;SDS011;35245;52.026;8.540;2023-05-07T11:29:12;5.78;;;5.13;;
49366;SDS011;35245;52.026;8.540;2023-05-07T11:31:40;8.45;;;5.38;;
49366;SDS011;35245;52.026;8.540;2023-05-07T11:34:07;7.15;;;5.25;;
49366;SDS011;35245;52.026;8.540;2023-05-07T11:36:40;6.53;;;4.80;;
49366;SDS011;35245;52.026;8.540;2023-05-07T11:39:22;6.28;;;4.60;;
49366;SDS011;35245;52.026;8.540;2023-05-07T11:41:51;5.75;;;4.88;;
49366;SDS011;35245;52.026;8.540;2023-05-07T11:44:17;4.90;;;4.40;;
49366;SDS011;35245;52.026;8.540;2023-05-07T11:46:44;6.47;;;4.70;;
49366;SDS011;35245;52.026;8.540;2023-05-07T11:49:12;6.20;;;5.07;;
49366;SDS011;35245;52.026;8.540;2023-05-07T11:51:40;4.90;;;3.90;;
49366;SDS011;35245;52.026;8.540;2023-05-07T11:54:07;6.40;;;3.92;;
49366;SDS011;35245;52.026;8.540;2023-05-07T11:56:36;5.70;;;4.53;;
49366;SDS011;35245;52.026;8.540;2023-05-07T11:59:04;4.30;;;3.70;;
49366;SDS011;35245;52.026;8.540;2023-05-07T12:01:31;5.57;;;4.03;;
49366;SDS011;35245;52.026;8.540;2023-05-07T12:03:58;7.00;;;4.45;;
49366;SDS011;35245;52.026;8.540;2023-05-07T12:06:25;5.13;;;4.03;;
49366;SDS011;35245;52.026;8.540;2023-05-07T12:08:53;5.22;;;3.63;;
49366;SDS011;35245;52.026;8.540;2023-05-07T12:11:24;4.38;;;3.83;;
49366;SDS011;35245;52.026;8.540;2023-05-07T12:13:51;5.07;;;3.60;;
49366;SDS011;35245;52.026;8.540;2023-05-07T12:16:19;5.32;;;4.15;;
49366;SDS011;35245;52.026;8.540;2023-05-07T12:18:47;4.10;;;3.72;;
49366;SDS011;35245;52.026;8.540;2023-05-07T12:21:14;4.70;;;4.20;;
49366;SDS011;35245;52.026;8.540;2023-05-07T12:23:42;4.65;;;4.25;;
49366;SDS011;35245;52.026;8.540;2023-05-07T12:26:11;5.43;;;4.70;;
49366;SDS011;35245;52.026;8.540;2023-05-07T12:28:38;5.85;;;4.38;;
49366;SDS011;35245;52.026;8.540;2023-05-07T12:31:05;5.90;;;4.30;;
49366;SDS011;35245;52.026;8.540;2023-05-07T12:33:32;5.60;;;4.63;;
49366;SDS011;35245;52.026;8.540;2023-05-07T12:36:02;5.63;;;4.40;;
49366;SDS011;35245;52.026;8.540;2023-05-07T12:38:34;4.45;;;4.03;;
49366;SDS011;35245;52.026;8.540;2023-05-07T12:41:05;7.65;;;4.72;;
49366;SDS011;35245;52.026;8.540;2023-05-07T12:43:34;5.53;;;4.40;;
49366;SDS011;35245;52.026;8.540;2023-05-07T12:46:02;6.05;;;4.10;;
49366;SDS011;35245;52.026;8.540;2023-05-07T12:48:30;5.15;;;3.75;;
49366;SDS011;35245;52.026;8.540;2023-05-07T12:50:58;5.28;;;3.60;;
49366;SDS011;35245;52.026;8.540;2023-05-07T12:53:27;5.10;;;4.03;;
49366;SDS011;35245;52.026;8.540;2023-05-07T12:55:56;5.75;;;3.83;;
49366;SDS011;35245;52.026;8.540;2023-05-07T12:58:24;4.05;;;3.50;;
49366;SDS011;35245;52.026;8.540;2023-05-07T13:00:54;5.85;;;3.53;;
49366;SDS011;35245;52.026;8.540;2023-05-07T13:03:26;4.72;;;3.90;;
49366;SDS011;35245;52.026;8.540;2023-05-07T13:05:54;5.20;;;4.00;;
49366;SDS011;35245;52.026;8.540;2023-05-07T13:08:25;7.57;;;4.78;;
49366;SDS011;35245;52.026;8.540;2023-05-07T13:10:53;4.22;;;3.30;;
49366;SDS011;35245;52.026;8.540;2023-05-07T13:13:20;4.07;;;3.67;;
49366;SDS011;35245;52.026;8.540;2023-05-07T13:15:47;4.90;;;4.43;;
49366;SDS011;35245;52.026;8.540;2023-05-07T13:18:15;4.63;;;3.85;;
49366;SDS011;35245;52.026;8.540;2023-05-07T13:20:42;6.40;;;5.22;;
49366;SDS011;35245;52.026;8.540;2023-05-07T13:23:09;6.20;;;4.13;;
49366;SDS011;35245;52.026;8.540;2023-05-07T13:25:36;4.63;;;3.70;;
49366;SDS011;35245;52.026;8.540;2023-05-07T13:28:03;4.85;;;3.72;;
49366;SDS011;35245;52.026;8.540;2023-05-07T13:30:30;4.40;;;3.70;;
49366;SDS011;35245;52.026;8.540;2023-05-07T13:32:57;4.25;;;3.38;;
49366;SDS011;35245;52.026;8.540;2023-05-07T13:35:25;5.18;;;4.07;;
49366;SDS011;35245;52.026;8.540;2023-05-07T13:37:52;4.88;;;3.70;;
49366;SDS011;35245;52.026;8.540;2023-05-07T13:40:20;4.75;;;3.60;;
49366;SDS011;35245;52.026;8.540;2023-05-07T13:42:47;4.80;;;3.92;;
49366;SDS011;35245;52.026;8.540;2023-05-07T13:45:14;4.97;;;4.20;;
49366;SDS011;35245;52.026;8.540;2023-05-07T13:47:41;4.68;;;4.13;;
49366;SDS011;35245;52.026;8.540;2023-05-07T13:50:08;4.80;;;4.07;;
49366;SDS011;35245;52.026;8.540;2023-05-07T13:52:37;6.70;;;4.50;;
49366;SDS011;35245;52.026;8.540;2023-05-07T13:55:05;8.13;;;4.65;;
49366;SDS011;35245;52.026;8.540;2023-05-07T13:57:33;6.47;;;4.20;;
49366;SDS011;35245;52.026;8.540;2023-05-07T14:00:00;5.28;;;4.53;;
49366;SDS011;35245;52.026;8.540;2023-05-07T14:02:27;5.25;;;4.50;;
49366;SDS011;35245;52.026;8.540;2023-05-07T14:04:54;6.03;;;4.18;;
49366;SDS011;35245;52.026;8.540;2023-05-07T14:07:21;6.57;;;4.72;;
49366;SDS011;35245;52.026;8.540;2023-05-07T14:09:49;4.55;;;4.15;;
49366;SDS011;35245;52.026;8.540;2023-05-07T14:12:16;6.32;;;4.90;;
49366;SDS011;35245;52.026;8.540;2023-05-07T14:14:43;7.32;;;4.85;;
49366;SDS011;35245;52.026;8.540;2023-05-07T14:17:12;7.47;;;4.85;;
49366;SDS011;35245;52.026;8.540;2023-05-07T14:19:39;6.38;;;4.72;;
49366;SDS011;35245;52.026;8.540;2023-05-07T14:22:05;5.20;;;4.68;;
49366;SDS011;35245;52.026;8.540;2023-05-07T14:24:32;6.63;;;5.50;;
49366;SDS011;35245;52.026;8.540;2023-05-07T14:27:01;6.68;;;4.60;;
49366;SDS011;35245;52.026;8.540;2023-05-07T14:29:27;5.97;;;4.68;;
49366;SDS011;35245;52.026;8.540;2023-05-07T14:31:54;6.38;;;5.10;;
49366;SDS011;35245;52.026;8.540;2023-05-07T14:34:21;6.80;;;5.45;;
49366;SDS011;35245;52.026;8.540;2023-05-07T14:36:48;6.10;;;4.80;;
49366;SDS011;35245;52.026;8.540;2023-05-07T14:39:15;7.15;;;5.05;;
49366;SDS011;35245;52.026;8.540;2023-05-07T14:41:42;7.13;;;5.25;;
49366;SDS011;35245;52.026;8.540;2023-05-07T14:44:10;6.13;;;5.53;;
49366;SDS011;35245;52.026;8.540;2023-05-07T14:46:37;6.45;;;5.55;;
49366;SDS011;35245;52.026;8.540;2023-05-07T14:49:04;7.82;;;5.30;;
49366;SDS011;35245;52.026;8.540;2023-05-07T14:51:32;8.45;;;5.80;;